Time;durP1;ratioP1;P1;durP2;ratioP2;P2;SDS_P1;SDS_P2;PMS_P1;PMS_P2;Temp;Humidity;BMP_temperature;BMP_pressure;BME280_temperature;BME280_humidity;BME280_pressure;Samples;Min_cycle;Max_cycle;Signal;HPM_P1;HPM_P2
2022/04/22 00:01:59;;;;;;;8.65;4.97;;;12.10;99.90;;;;;;4842465;29;20050;-90
2022/04/22 00:04:33;;;;;;;10.32;5.10;;;12.20;99.90;;;;;;4842463;29;20500;-90
2022/04/22 00:07:01;;;;;;;7.97;5.78;;;12.10;99.90;;;;;;4827770;29;20136;-91
2022/04/22 00:09:28;;;;;;;12.10;5.50;;;12.10;99.90;;;;;;4842597;29;20582;-90
2022/04/22 00:11:55;;;;;;;9.90;5.97;;;12.00;99.90;;;;;;4842406;29;20050;-91
2022/04/22 00:14:22;;;;;;;12.90;5.22;;;12.00;99.90;;;;;;4826795;29;20421;-90
2022/04/22 00:16:50;;;;;;;12.98;6.75;;;12.00;99.90;;;;;;4842317;29;20037;-91
2022/04/22 00:19:17;;;;;;;10.63;5.20;;;11.90;99.90;;;;;;4842350;29;20453;-90
2022/04/22 00:21:47;;;;;;;10.07;6.28;;;11.80;99.90;;;;;;4844300;29;20076;-91
2022/04/22 00:24:16;;;;;;;12.85;5.70;;;11.80;99.90;;;;;;4832337;29;20064;-90
2022/04/22 00:26:43;;;;;;;10.02;5.05;;;11.80;99.90;;;;;;4861686;29;20065;-90
2022/04/22 00:29:11;;;;;;;8.52;5.60;;;11.80;99.90;;;;;;4864313;29;20077;-90
2022/04/22 00:31:39;;;;;;;10.07;5.72;;;11.70;99.90;;;;;;4858767;29;20392;-90
2022/04/22 00:34:06;;;;;;;12.30;5.18;;;11.70;99.90;;;;;;4842205;29;20052;-91
2022/04/22 00:36:33;;;;;;;9.10;5.25;;;11.70;99.90;;;;;;4842482;29;20140;-91
2022/04/22 00:39:01;;;;;;;13.00;6.20;;;11.80;99.90;;;;;;4857676;29;20546;-91
2022/04/22 00:41:29;;;;;;;8.43;5.40;;;11.80;99.90;;;;;;4842416;29;20053;-90
2022/04/22 00:43:56;;;;;;;12.43;5.85;;;11.70;99.90;;;;;;4857751;29;20143;-89
2022/04/22 00:46:24;;;;;;;9.85;5.85;;;11.80;99.90;;;;;;4841994;29;20058;-89
2022/04/22 00:48:52;;;;;;;11.50;6.45;;;11.80;99.90;;;;;;4842499;29;20042;-91
2022/04/22 00:51:21;;;;;;;10.45;4.80;;;11.70;99.90;;;;;;4858022;29;20046;-89
2022/04/22 00:53:50;;;;;;;12.10;6.35;;;11.70;99.90;;;;;;4843651;29;20117;-92
2022/04/22 00:56:18;;;;;;;10.65;6.15;;;11.80;99.90;;;;;;4842239;29;20046;-91
2022/04/22 00:58:47;;;;;;;16.45;6.60;;;11.70;99.90;;;;;;4827049;29;20054;-90
2022/04/22 01:01:14;;;;;;;10.55;5.32;;;11.70;99.90;;;;;;4857783;29;20038;-89
2022/04/22 01:12:07;;;;;;;12.15;4.55;;;11.70;99.90;;;;;;4843405;29;20098;-92
2022/04/22 01:14:34;;;;;;;10.48;4.93;;;11.70;99.90;;;;;;4856965;29;20054;-92
2022/04/22 01:17:02;;;;;;;8.38;4.85;;;11.80;99.90;;;;;;4842249;29;20483;-91
2022/04/22 01:19:30;;;;;;;12.18;4.95;;;11.70;99.90;;;;;;4843245;29;20069;-90
2022/04/22 01:21:57;;;;;;;10.15;4.90;;;11.60;99.90;;;;;;4857440;29;20480;-89
2022/04/22 01:24:25;;;;;;;12.10;7.07;;;11.60;99.90;;;;;;4841219;29;20046;-89
2022/04/22 01:26:55;;;;;;;8.77;4.50;;;11.60;99.90;;;;;;4860632;29;20114;-90
2022/04/22 01:29:23;;;;;;;10.85;5.05;;;11.70;99.90;;;;;;4860968;29;20427;-90
2022/04/22 01:31:50;;;;;;;12.15;5.82;;;11.80;99.90;;;;;;4860913;29;20085;-91
2022/04/22 01:34:17;;;;;;;8.52;5.45;;;11.70;99.90;;;;;;4860383;29;20537;-90
2022/04/22 01:36:44;;;;;;;12.75;6.95;;;11.60;99.90;;;;;;4829145;29;20075;-92
2022/04/22 01:39:11;;;;;;;9.95;5.40;;;11.50;99.90;;;;;;4827485;29;20054;-91
2022/04/22 01:41:38;;;;;;;10.90;5.85;;;11.50;99.90;;;;;;4827968;29;20553;-89
2022/04/22 01:44:05;;;;;;;10.00;6.45;;;11.50;99.90;;;;;;4826779;29;20057;-90
2022/04/22 01:46:32;;;;;;;10.52;5.35;;;11.50;99.90;;;;;;4842063;29;20046;-90
2022/04/22 01:49:00;;;;;;;10.35;6.55;;;11.50;99.90;;;;;;4827939;29;20046;-90
2022/04/22 01:51:26;;;;;;;11.75;5.85;;;11.40;99.90;;;;;;4827184;29;20085;-90
2022/04/22 01:53:54;;;;;;;9.88;5.57;;;11.40;99.90;;;;;;4827895;29;20046;-91
2022/04/22 01:56:21;;;;;;;20.27;6.40;;;11.40;99.90;;;;;;4845053;29;20074;-90
2022/04/22 01:58:48;;;;;;;10.88;5.53;;;11.40;99.90;;;;;;4829918;29;20061;-90
2022/04/22 02:01:15;;;;;;;14.85;6.35;;;11.40;99.90;;;;;;4844856;29;20137;-89
2022/04/22 02:03:42;;;;;;;10.95;7.07;;;11.30;99.90;;;;;;4844474;29;20494;-90
2022/04/22 02:06:10;;;;;;;13.15;6.00;;;11.30;99.90;;;;;;4829828;29;20053;-90
2022/04/22 02:08:36;;;;;;;7.30;4.85;;;11.20;99.90;;;;;;4845205;29;20124;-90
2022/04/22 02:11:04;;;;;;;13.27;6.70;;;11.30;99.90;;;;;;4845886;29;20105;-90
2022/04/22 02:13:36;;;;;;;12.55;6.63;;;11.20;99.90;;;;;;4829043;29;20102;-90
2022/04/22 02:16:08;;;;;;;9.43;6.13;;;11.20;99.90;;;;;;4826181;29;20061;-90
2022/04/22 02:18:39;;;;;;;14.00;6.72;;;11.20;99.90;;;;;;4841716;29;20069;-90
2022/04/22 02:21:06;;;;;;;9.75;5.72;;;11.10;99.90;;;;;;4841457;29;20058;-89
2022/04/22 02:23:34;;;;;;;10.90;5.55;;;11.10;99.90;;;;;;4840978;29;20153;-90
2022/04/22 02:26:02;;;;;;;12.32;6.05;;;11.10;99.90;;;;;;4841344;29;20114;-90
2022/04/22 02:28:32;;;;;;;9.85;5.43;;;11.00;99.90;;;;;;4841187;29;20046;-91
2022/04/22 02:31:04;;;;;;;10.13;5.40;;;11.00;99.90;;;;;;4841450;29;20479;-90
2022/04/22 02:33:33;;;;;;;9.02;6.10;;;11.00;99.90;;;;;;4840965;29;20062;-90
2022/04/22 02:36:00;;;;;;;10.27;6.30;;;11.00;99.90;;;;;;4852713;29;20042;-90
2022/04/22 02:38:28;;;;;;;10.38;6.43;;;11.00;99.90;;;;;;4859525;29;20074;-90
2022/04/22 02:46:30;;;;;;;9.95;5.90;;;10.90;99.90;;;;;;4844016;29;20046;-91
2022/04/22 02:48:58;;;;;;;9.85;5.03;;;10.80;99.90;;;;;;4844038;29;20540;-91
2022/04/22 02:51:26;;;;;;;16.10;6.57;;;10.80;99.90;;;;;;4844502;29;20062;-91
2022/04/22 02:53:53;;;;;;;10.63;5.60;;;10.80;99.90;;;;;;4859739;29;20415;-91
2022/04/22 02:56:22;;;;;;;11.60;6.25;;;10.90;99.90;;;;;;4848497;29;20486;-90
2022/04/22 02:58:49;;;;;;;13.93;6.10;;;10.80;99.90;;;;;;4843988;29;20487;-90
2022/04/22 03:01:17;;;;;;;10.48;6.03;;;10.80;99.90;;;;;;4844214;29;20053;-90
2022/04/22 03:03:44;;;;;;;14.38;6.53;;;10.80;99.90;;;;;;4844031;29;20049;-90
2022/04/22 03:06:11;;;;;;;15.02;7.05;;;10.80;99.90;;;;;;4859192;29;20436;-91
2022/04/22 03:08:39;;;;;;;15.18;6.45;;;10.70;99.90;;;;;;4843879;29;20465;-90
2022/04/22 03:11:06;;;;;;;15.05;7.35;;;10.70;99.90;;;;;;4847089;29;20487;-90
2022/04/22 03:13:33;;;;;;;11.30;6.85;;;10.70;99.90;;;;;;4853107;29;20109;-89
2022/04/22 03:16:02;;;;;;;16.13;7.68;;;10.60;99.90;;;;;;4835513;29;20046;-90
2022/04/22 03:18:29;;;;;;;16.75;8.02;;;10.60;99.90;;;;;;4845269;29;20478;-90
2022/04/22 03:20:57;;;;;;;17.20;8.90;;;10.60;99.90;;;;;;4840669;29;20556;-90
2022/04/22 03:23:24;;;;;;;12.82;7.28;;;10.70;99.90;;;;;;4824749;29;20146;-90
2022/04/22 03:25:54;;;;;;;15.50;6.68;;;10.60;99.90;;;;;;4840239;29;20140;-90
2022/04/22 03:28:23;;;;;;;14.18;8.43;;;10.60;99.90;;;;;;4839745;29;20051;-90
2022/04/22 03:30:50;;;;;;;15.20;7.22;;;10.60;99.90;;;;;;4839964;29;20061;-89
2022/04/22 03:33:18;;;;;;;14.68;6.65;;;10.60;99.90;;;;;;4839874;29;20149;-90
2022/04/22 03:35:52;;;;;;;14.40;6.00;;;10.60;99.90;;;;;;4836216;29;20097;-91
2022/04/22 03:38:21;;;;;;;15.95;8.05;;;10.60;99.90;;;;;;4842918;29;20092;-89
2022/04/22 03:40:49;;;;;;;14.23;6.93;;;10.60;99.90;;;;;;4843116;29;20385;-90
2022/04/22 03:43:17;;;;;;;14.73;7.20;;;10.60;99.90;;;;;;4827953;29;20114;-90
2022/04/22 03:45:44;;;;;;;26.25;8.80;;;10.60;99.90;;;;;;4858500;29;20053;-90
2022/04/22 03:48:13;;;;;;;13.00;6.75;;;10.60;99.90;;;;;;4842555;29;20069;-91
2022/04/22 03:50:40;;;;;;;22.02;7.50;;;10.60;99.90;;;;;;4858442;29;20049;-91
2022/04/22 03:53:11;;;;;;;16.42;7.82;;;10.50;99.90;;;;;;4843706;29;20068;-91
2022/04/22 03:55:40;;;;;;;12.15;6.72;;;10.50;99.90;;;;;;4844000;29;20050;-90
2022/04/22 03:58:11;;;;;;;9.73;6.57;;;10.50;99.90;;;;;;4843198;29;20056;-91
2022/04/22 04:00:49;;;;;;;14.88;8.48;;;10.40;99.90;;;;;;4858184;29;20054;-91
2022/04/22 04:03:19;;;;;;;19.02;6.60;;;10.30;99.90;;;;;;4843071;29;20061;-89
2022/04/22 04:05:51;;;;;;;17.50;7.13;;;10.30;99.90;;;;;;4842798;29;20050;-91
2022/04/22 04:08:20;;;;;;;14.35;5.93;;;10.30;99.90;;;;;;4827316;29;20546;-89
2022/04/22 04:16:21;;;;;;;8.40;5.43;;;10.20;99.90;;;;;;4857656;29;20054;-90
2022/04/22 04:18:48;;;;;;;13.48;6.20;;;10.30;99.90;;;;;;4857342;29;20050;-91
2022/04/22 04:24:03;;;;;;;9.68;5.57;;;10.30;99.90;;;;;;4856378;29;20140;-90
2022/04/22 04:26:30;;;;;;;10.38;4.68;;;10.20;99.90;;;;;;4853400;29;20046;-90
2022/04/22 04:28:58;;;;;;;11.05;4.68;;;10.10;99.90;;;;;;4837848;29;20046;-90
2022/04/22 04:31:26;;;;;;;10.38;5.30;;;10.10;99.90;;;;;;4826645;29;20118;-91
2022/04/22 04:33:53;;;;;;;13.68;5.15;;;10.10;99.90;;;;;;4842162;29;20069;-91
2022/04/22 04:36:20;;;;;;;10.07;4.97;;;10.00;99.90;;;;;;4826922;29;20478;-91
2022/04/22 04:38:47;;;;;;;10.73;4.70;;;9.90;99.90;;;;;;4827293;29;20061;-90
2022/04/22 04:41:14;;;;;;;10.13;4.53;;;10.10;99.90;;;;;;4827021;29;20480;-90
2022/04/22 04:43:41;;;;;;;7.30;4.45;;;10.00;99.90;;;;;;4841971;29;20050;-91
2022/04/22 04:46:08;;;;;;;10.75;4.72;;;9.90;99.90;;;;;;4841906;29;20153;-90
2022/04/22 04:48:36;;;;;;;10.35;4.72;;;10.00;99.90;;;;;;4842326;29;20519;-90
2022/04/22 04:51:04;;;;;;;10.48;4.00;;;10.00;99.90;;;;;;4857167;29;20061;-91
2022/04/22 04:53:32;;;;;;;12.05;4.88;;;10.00;99.90;;;;;;4842208;29;20042;-86
2022/04/22 04:55:59;;;;;;;7.55;4.50;;;9.90;99.90;;;;;;4841605;29;20046;-84
2022/04/22 04:58:26;;;;;;;8.70;4.50;;;9.90;99.90;;;;;;4842083;29;20515;-84
2022/04/22 05:00:53;;;;;;;14.43;4.10;;;9.90;99.90;;;;;;4845382;29;20106;-84
2022/04/22 05:03:21;;;;;;;9.43;4.13;;;9.90;99.90;;;;;;4846576;29;20519;-84
2022/04/22 05:05:49;;;;;;;7.38;3.67;;;9.90;99.90;;;;;;4847321;29;20114;-90
2022/04/22 05:08:26;;;;;;;9.75;4.60;;;9.90;99.90;;;;;;4848113;29;20050;-93
2022/04/22 05:18:19;;;;;;;10.90;4.97;;;10.00;99.90;;;;;;4790147;30;20397;-92
2022/04/22 05:21:11;;;;;;;8.30;4.05;;;9.80;99.90;;;;;;4790961;29;20075;-92
2022/04/22 05:24:37;;;;;;;;;;;;;;;;;;;;;
2022/04/22 05:41:28;;;;;;;13.77;4.32;;;9.90;99.90;;;;;;4777437;30;20126;-92
2022/04/22 05:44:42;;;;;;;8.30;4.53;;;10.00;99.90;;;;;;4778228;29;20061;-86
2022/04/22 05:47:31;;;;;;;7.05;4.20;;;9.80;99.90;;;;;;4842392;29;20099;-94
2022/04/22 05:49:58;;;;;;;10.90;4.80;;;9.90;99.90;;;;;;4812287;29;20059;-89
2022/04/22 05:52:28;;;;;;;8.70;4.47;;;10.00;99.90;;;;;;4812129;29;20066;-91
2022/04/22 05:54:57;;;;;;;9.40;3.88;;;10.00;99.90;;;;;;4833955;29;20070;-93
2022/04/22 05:57:40;;;;;;;9.55;5.63;;;10.10;99.90;;;;;;4845647;29;20089;-93
2022/04/22 06:00:09;;;;;;;10.35;4.80;;;10.10;99.90;;;;;;4848264;29;20094;-91
2022/04/22 06:02:41;;;;;;;;;;;10.10;99.90;;;;;;4846483;29;20061;-90
